createdAt,value
2022-11-12T00:00:08.260Z,92.04
2022-11-12T00:01:04.698Z,92.31
2022-11-12T00:02:01.217Z,92.45
2022-11-12T00:02:58.041Z,92.05
2022-11-12T00:03:55.899Z,92.38
2022-11-12T00:04:52.349Z,92.84
2022-11-12T00:05:49.599Z,92.99
2022-11-12T00:06:46.217Z,93.31
2022-11-12T00:07:42.720Z,93.41
2022-11-12T00:08:39.210Z,93.27
2022-11-12T00:09:35.662Z,92.80
2022-11-12T00:10:32.499Z,92.74
2022-11-12T00:11:28.936Z,92.83
2022-11-12T00:12:25.400Z,93.25
2022-11-12T00:13:21.892Z,93.38
2022-11-12T00:14:18.354Z,93.36
2022-11-12T00:17:25.001Z,93.34
2022-11-12T00:18:21.878Z,93.20
2022-11-12T00:19:18.440Z,92.71
2022-11-12T00:20:15.180Z,91.99
2022-11-12T00:21:11.632Z,91.75
2022-11-12T00:22:08.162Z,90.49
2022-11-12T00:23:04.759Z,90.10
2022-11-12T00:24:01.296Z,90.77
2022-11-12T00:24:57.794Z,90.71
2022-11-12T00:26:00.834Z,90.34
2022-11-12T00:26:57.407Z,87.56
2022-11-12T00:27:53.973Z,86.02
2022-11-12T00:28:50.509Z,85.66
2022-11-12T00:29:46.945Z,85.29
2022-11-12T00:30:43.430Z,85.61
2022-11-12T00:31:39.963Z,85.65
2022-11-12T00:32:37.518Z,84.65
2022-11-12T00:33:34.017Z,83.45
2022-11-12T00:34:31.332Z,83.99
2022-11-12T00:35:27.885Z,83.27
2022-11-12T00:36:24.360Z,83.89
2022-11-12T00:37:23.128Z,85.19
2022-11-12T00:38:19.672Z,83.87
2022-11-12T00:39:16.199Z,84.24
2022-11-12T00:40:12.701Z,83.60
2022-11-12T00:41:09.179Z,84.87
2022-11-12T00:42:05.650Z,84.91
2022-11-12T00:43:02.117Z,85.05
2022-11-12T00:43:58.680Z,85.29
2022-11-12T00:44:55.159Z,86.08
2022-11-12T00:45:51.835Z,87.04
2022-11-12T00:46:48.277Z,88.08
2022-11-12T00:47:45.150Z,87.31
2022-11-12T00:48:41.618Z,87.83
2022-11-12T00:49:38.218Z,86.98
2022-11-12T00:50:34.672Z,86.81
2022-11-12T00:51:31.166Z,87.47
2022-11-12T00:52:29.231Z,87.28
2022-11-12T00:53:25.697Z,87.78
2022-11-12T00:54:22.159Z,86.75
2022-11-12T00:55:18.621Z,86.82
2022-11-12T00:56:15.369Z,86.80
2022-11-12T00:57:11.786Z,85.34
2022-11-12T00:58:08.256Z,85.02
2022-11-12T00:59:04.742Z,85.47
2022-11-12T01:00:01.186Z,85.74
2022-11-12T01:00:58.439Z,84.94
2022-11-12T01:01:54.971Z,84.77
2022-11-12T01:02:51.657Z,84.29
2022-11-12T01:03:48.182Z,83.40
2022-11-12T01:04:44.881Z,83.32
2022-11-12T01:05:41.410Z,83.03
2022-11-12T01:06:39.568Z,82.53
2022-11-12T01:07:36.123Z,80.98
2022-11-12T01:08:33.181Z,81.44
2022-11-12T01:09:29.619Z,81.18
2022-11-12T01:10:26.154Z,80.98
2022-11-12T01:11:23.963Z,81.06
2022-11-12T01:12:20.440Z,81.71
2022-11-12T01:13:16.934Z,81.50
2022-11-12T01:14:13.434Z,81.83
2022-11-12T01:15:10.075Z,81.93
2022-11-12T01:16:11.803Z,81.36
2022-11-12T01:17:08.268Z,80.73
2022-11-12T01:18:04.773Z,81.30
2022-11-12T01:19:02.275Z,81.03
2022-11-12T01:19:58.737Z,81.21
2022-11-12T01:20:55.473Z,81.89
2022-11-12T01:21:51.982Z,81.60
2022-11-12T01:22:48.458Z,81.56
2022-11-12T01:23:44.915Z,81.37
2022-11-12T01:24:41.396Z,81.50
2022-11-12T01:25:38.390Z,81.79
2022-11-12T01:26:35.164Z,81.42
2022-11-12T01:27:31.641Z,81.66
2022-11-12T01:28:29.165Z,81.94
2022-11-12T01:29:25.752Z,81.62
2022-11-12T01:30:22.231Z,81.56
2022-11-12T01:31:25.943Z,81.61
2022-11-12T01:32:22.392Z,81.49
2022-11-12T01:33:18.864Z,81.68
2022-11-12T01:34:15.395Z,81.36
2022-11-12T01:35:11.864Z,80.63
2022-11-12T01:36:08.812Z,80.90
2022-11-12T01:37:05.312Z,80.46
2022-11-12T01:38:01.852Z,79.82
2022-11-12T01:38:58.425Z,80.26
2022-11-12T01:39:54.861Z,80.17
2022-11-12T01:40:51.265Z,79.33
2022-11-12T01:41:47.715Z,80.01
2022-11-12T01:42:50.899Z,80.26
2022-11-12T01:43:47.438Z,80.39
2022-11-12T01:44:44.731Z,79.91
2022-11-12T01:45:43.066Z,79.66
2022-11-12T01:46:58.315Z,80.17
2022-11-12T01:47:54.865Z,79.44
2022-11-12T01:48:58.401Z,79.77
2022-11-12T01:50:13.610Z,79.90
2022-11-12T01:51:12.025Z,79.86
2022-11-12T01:52:20.909Z,79.42
2022-11-12T01:53:17.504Z,80.41
2022-11-12T01:54:17.276Z,79.57
2022-11-12T01:55:26.193Z,79.73
2022-11-12T01:56:24.032Z,79.42
2022-11-12T01:57:24.158Z,79.39
2022-11-12T01:58:22.276Z,78.86
2022-11-12T01:59:25.008Z,79.08
2022-11-12T02:00:21.562Z,79.92
2022-11-12T02:01:18.121Z,80.12
2022-11-12T02:02:14.692Z,80.11
2022-11-12T02:03:14.722Z,79.73
2022-11-12T02:04:11.328Z,79.32
2022-11-12T02:05:09.952Z,79.20
2022-11-12T02:06:09.451Z,79.21
2022-11-12T02:07:07.055Z,79.30
2022-11-12T02:08:04.545Z,78.31
2022-11-12T02:09:01.020Z,77.93
2022-11-12T02:09:58.044Z,77.56
2022-11-12T02:10:54.610Z,77.78
2022-11-12T02:11:51.094Z,77.73
2022-11-12T02:13:07.564Z,77.95
2022-11-12T02:14:05.192Z,78.31
2022-11-12T02:15:02.016Z,78.45
2022-11-12T02:15:58.826Z,78.32
2022-11-12T02:16:55.284Z,77.59
2022-11-12T02:17:51.879Z,78.77
2022-11-12T02:18:48.327Z,77.85
2022-11-12T02:19:46.653Z,77.86
2022-11-12T02:20:43.097Z,77.62
2022-11-12T02:21:40.040Z,76.83
2022-11-12T02:22:36.475Z,76.89
2022-11-12T02:23:32.939Z,77.02
2022-11-12T02:24:32.378Z,76.99
2022-11-12T02:25:28.813Z,76.93
2022-11-12T02:26:25.728Z,77.67
2022-11-12T02:27:23.110Z,77.45
2022-11-12T02:28:19.580Z,76.86
2022-11-12T02:29:16.009Z,76.41
2022-11-12T02:30:12.632Z,77.19
2022-11-12T02:31:09.066Z,77.49
2022-11-12T02:32:05.566Z,77.54
2022-11-12T02:33:02.201Z,78.40
2022-11-12T02:33:58.815Z,77.65
2022-11-12T02:34:55.356Z,77.91
2022-11-12T02:35:51.843Z,77.61
2022-11-12T02:36:48.315Z,77.73
2022-11-12T02:37:44.772Z,77.32
2022-11-12T02:38:41.293Z,77.98
2022-11-12T02:39:37.883Z,77.15
2022-11-12T02:40:34.514Z,77.72
2022-11-12T02:41:31.001Z,78.31
2022-11-12T02:42:27.491Z,77.84
2022-11-12T02:43:24.048Z,78.00
2022-11-12T02:44:20.570Z,78.46
2022-11-12T02:45:17.479Z,77.50
2022-11-12T02:46:14.344Z,77.46
2022-11-12T02:47:10.800Z,77.58
2022-11-12T02:48:07.248Z,78.51
2022-11-12T02:49:03.767Z,78.08
2022-11-12T02:50:00.215Z,78.05
2022-11-12T02:50:56.671Z,78.18
2022-11-12T02:51:53.109Z,77.69
2022-11-12T02:52:49.563Z,77.75
2022-11-12T02:53:46.004Z,77.94
2022-11-12T02:54:42.463Z,78.10
2022-11-12T02:55:39.200Z,78.53
2022-11-12T02:56:35.740Z,78.66
2022-11-12T02:57:32.190Z,78.58
2022-11-12T02:58:29.507Z,78.38
2022-11-12T02:59:26.123Z,78.16
2022-11-12T03:00:22.609Z,77.98
2022-11-12T03:01:19.173Z,78.84
2022-11-12T03:02:15.645Z,78.63
2022-11-12T03:03:12.178Z,78.92
2022-11-12T03:04:08.753Z,79.36
2022-11-12T03:05:05.562Z,79.26
2022-11-12T03:06:02.051Z,80.20
2022-11-12T03:06:58.547Z,80.48
2022-11-12T03:07:59.091Z,79.80
2022-11-12T03:08:55.565Z,79.44
2022-11-12T03:09:52.069Z,80.04
2022-11-12T03:10:48.512Z,80.98
2022-11-12T03:11:44.983Z,80.57
2022-11-12T03:12:41.434Z,80.31
2022-11-12T03:13:38.225Z,80.14
2022-11-12T03:14:34.656Z,79.50
2022-11-12T03:15:31.127Z,79.96
2022-11-12T03:16:27.591Z,80.93
2022-11-12T03:17:24.128Z,81.72
2022-11-12T03:18:20.541Z,81.76
2022-11-12T03:19:16.995Z,82.26
2022-11-12T03:20:13.512Z,81.90
2022-11-12T03:21:09.971Z,81.40
2022-11-12T03:22:06.430Z,81.80
2022-11-12T03:23:04.332Z,81.98
2022-11-12T03:24:01.301Z,81.47
2022-11-12T03:24:57.857Z,81.59
2022-11-12T03:25:54.377Z,82.01
2022-11-12T03:26:50.863Z,82.03
2022-11-12T03:27:47.327Z,82.73
2022-11-12T03:28:43.775Z,82.53
2022-11-12T03:29:40.244Z,82.74
2022-11-12T03:30:38.450Z,82.82
2022-11-12T03:31:35.762Z,82.78
2022-11-12T03:32:32.230Z,82.60
2022-11-12T03:33:28.712Z,82.60
2022-11-12T03:34:25.171Z,82.66
2022-11-12T03:35:21.893Z,82.28
2022-11-12T03:36:18.473Z,82.32
2022-11-12T03:37:14.919Z,82.19
2022-11-12T03:38:11.372Z,82.43
2022-11-12T03:39:07.838Z,83.16
2022-11-12T03:40:04.486Z,83.36
2022-11-12T03:41:00.950Z,83.29
2022-11-12T03:41:57.442Z,83.84
2022-11-12T03:42:54.290Z,83.16
2022-11-12T03:43:50.749Z,82.76
2022-11-12T03:44:47.254Z,82.26
2022-11-12T03:45:43.714Z,82.30
2022-11-12T03:46:43.997Z,82.20
2022-11-12T03:47:51.260Z,82.76
2022-11-12T03:48:47.784Z,84.18
2022-11-12T03:49:44.281Z,84.96
2022-11-12T03:50:40.746Z,85.01
2022-11-12T03:51:37.189Z,84.99
2022-11-12T03:52:33.639Z,84.93
2022-11-12T03:53:30.121Z,84.99
2022-11-12T03:54:26.573Z,85.27
2022-11-12T03:55:23.816Z,84.62
2022-11-12T03:56:20.307Z,84.72
2022-11-12T03:57:16.822Z,84.96
2022-11-12T03:58:13.285Z,84.96
2022-11-12T03:59:10.377Z,85.24
2022-11-12T04:00:08.396Z,85.90
2022-11-12T04:01:04.931Z,85.93
2022-11-12T04:02:01.524Z,86.36
2022-11-12T04:02:58.472Z,85.98
2022-11-12T04:03:55.029Z,85.77
2022-11-12T04:05:10.052Z,85.88
2022-11-12T04:06:25.524Z,85.76
2022-11-12T04:07:40.690Z,85.22
2022-11-12T04:08:37.293Z,84.53
2022-11-12T04:09:33.820Z,84.36
2022-11-12T04:10:31.156Z,83.45
2022-11-12T04:11:27.658Z,83.82
2022-11-12T04:12:42.548Z,83.77
2022-11-12T04:13:39.539Z,83.85
2022-11-12T04:14:36.031Z,83.74
2022-11-12T04:15:32.718Z,83.32
2022-11-12T04:16:47.826Z,83.36
2022-11-12T04:18:03.051Z,83.22
2022-11-12T04:19:19.244Z,83.43
2022-11-12T04:20:34.145Z,84.94
2022-11-12T04:21:50.980Z,85.21
2022-11-12T04:22:47.462Z,86.11
2022-11-12T04:23:43.950Z,86.09
2022-11-12T04:25:00.367Z,87.13
2022-11-12T04:26:15.468Z,87.26
2022-11-12T04:27:15.014Z,85.78
2022-11-12T04:28:11.519Z,84.75
2022-11-12T04:29:27.090Z,84.59
2022-11-12T04:30:23.528Z,85.62
2022-11-12T04:31:20.021Z,84.45
2022-11-12T04:32:16.659Z,83.31
2022-11-12T04:33:13.307Z,82.60
2022-11-12T04:34:28.663Z,82.13
2022-11-12T04:35:26.420Z,81.27
2022-11-12T04:36:22.907Z,80.72
2022-11-12T04:37:23.325Z,80.38
2022-11-12T04:38:20.131Z,80.88
2022-11-12T04:39:16.626Z,80.37
2022-11-12T04:40:31.467Z,80.05
2022-11-12T04:41:46.391Z,80.26
2022-11-12T04:43:06.407Z,80.16
2022-11-12T04:44:21.487Z,79.54
2022-11-12T04:45:18.000Z,79.50
2022-11-12T04:46:14.542Z,79.88
2022-11-12T04:47:11.001Z,79.74
2022-11-12T04:48:07.456Z,79.45
2022-11-12T04:49:03.921Z,79.09
2022-11-12T04:50:01.016Z,77.97
2022-11-12T04:51:01.456Z,78.54
2022-11-12T04:52:06.487Z,79.32
2022-11-12T04:53:02.980Z,78.95
2022-11-12T04:53:59.444Z,79.07
2022-11-12T04:54:56.586Z,78.63
2022-11-12T04:55:53.736Z,79.53
2022-11-12T04:56:50.219Z,79.70
2022-11-12T04:57:46.692Z,79.19
2022-11-12T04:58:43.873Z,79.25
2022-11-12T04:59:40.348Z,77.55
2022-11-12T05:00:36.796Z,77.80
2022-11-12T05:01:33.343Z,77.34
2022-11-12T05:02:29.870Z,77.68
2022-11-12T05:03:26.324Z,77.48
2022-11-12T05:04:22.840Z,78.24
2022-11-12T05:05:19.299Z,77.71
2022-11-12T05:06:34.253Z,78.42
2022-11-12T05:07:32.036Z,77.71
2022-11-12T05:08:28.752Z,78.79
2022-11-12T05:09:26.783Z,79.23
2022-11-12T05:10:23.303Z,78.70
2022-11-12T05:11:19.798Z,78.43
2022-11-12T05:12:16.290Z,79.08
2022-11-12T05:13:12.741Z,78.77
2022-11-12T05:14:09.315Z,79.25
2022-11-12T05:15:06.086Z,79.84
2022-11-12T05:16:02.582Z,80.48
2022-11-12T05:16:59.050Z,80.33
2022-11-12T05:17:55.531Z,80.31
2022-11-12T05:18:52.002Z,79.43
2022-11-12T05:19:48.436Z,79.19
2022-11-12T05:20:44.895Z,80.35
2022-11-12T05:21:59.999Z,81.38
2022-11-12T05:23:06.912Z,80.34
2022-11-12T05:24:04.096Z,81.01
2022-11-12T05:25:00.523Z,80.15
2022-11-12T05:25:56.982Z,77.63
2022-11-12T05:26:53.609Z,77.33
2022-11-12T05:27:50.131Z,77.02
2022-11-12T05:28:46.554Z,76.33
2022-11-12T05:29:43.075Z,79.15
2022-11-12T05:30:39.526Z,80.02
2022-11-12T05:31:36.099Z,79.79
2022-11-12T05:32:32.547Z,79.82
2022-11-12T05:33:29.017Z,80.53
2022-11-12T05:34:25.735Z,79.23
2022-11-12T05:35:22.261Z,79.07
2022-11-12T05:36:18.713Z,78.65
2022-11-12T05:37:15.740Z,79.18
2022-11-12T05:38:12.218Z,80.68
2022-11-12T05:39:08.707Z,80.42
2022-11-12T05:40:05.502Z,78.17
2022-11-12T05:41:01.947Z,77.67
2022-11-12T05:42:12.370Z,77.88
2022-11-12T05:43:10.055Z,77.76
2022-11-12T05:44:06.636Z,78.49
2022-11-12T05:45:03.352Z,76.76
2022-11-12T05:45:59.810Z,76.91
2022-11-12T05:46:56.482Z,76.98
2022-11-12T05:47:52.978Z,77.59
2022-11-12T05:48:49.430Z,77.04
2022-11-12T05:49:45.927Z,77.03
2022-11-12T05:51:06.161Z,75.56
2022-11-12T05:51:58.814Z,74.47
2022-11-12T05:52:55.248Z,74.37
2022-11-12T05:53:51.703Z,75.89
2022-11-12T05:54:48.206Z,75.67
2022-11-12T05:55:44.785Z,75.71
2022-11-12T05:56:41.394Z,74.46
2022-11-12T05:57:37.846Z,74.97
2022-11-12T05:58:35.327Z,75.21
2022-11-12T05:59:31.786Z,74.65
2022-11-12T06:00:28.291Z,74.69
2022-11-12T06:01:24.784Z,75.13
2022-11-12T06:02:21.404Z,75.50
2022-11-12T06:03:17.945Z,74.37
2022-11-12T06:04:15.155Z,74.34
2022-11-12T06:05:11.777Z,73.75
2022-11-12T06:06:08.405Z,73.79
2022-11-12T06:07:05.003Z,74.89
2022-11-12T06:08:01.926Z,74.15
2022-11-12T06:08:58.361Z,74.51
2022-11-12T06:09:54.805Z,74.78
2022-11-12T06:10:55.118Z,75.49
2022-11-12T06:11:51.586Z,74.58
2022-11-12T06:12:48.130Z,74.82
2022-11-12T06:13:44.658Z,73.33
2022-11-12T06:14:41.125Z,73.87
2022-11-12T06:15:39.394Z,74.95
2022-11-12T06:16:36.136Z,74.27
2022-11-12T06:17:32.602Z,74.68
2022-11-12T06:18:29.356Z,75.54
2022-11-12T06:19:26.133Z,73.70
2022-11-12T06:20:22.920Z,74.49
2022-11-12T06:21:19.445Z,73.78
2022-11-12T06:22:15.955Z,74.07
2022-11-12T06:23:12.396Z,74.16
2022-11-12T06:24:09.076Z,74.17
2022-11-12T06:25:05.945Z,73.37
2022-11-12T06:26:03.244Z,72.42
2022-11-12T06:26:59.726Z,73.18
2022-11-12T06:27:56.207Z,73.14
2022-11-12T06:28:52.733Z,74.26
2022-11-12T06:29:49.231Z,73.39
2022-11-12T06:30:45.667Z,74.56
2022-11-12T06:31:42.192Z,73.49
2022-11-12T06:32:38.630Z,73.44
2022-11-12T06:33:35.161Z,71.96
2022-11-12T06:34:31.603Z,73.47
2022-11-12T06:35:31.129Z,73.79
2022-11-12T06:36:27.604Z,72.77
2022-11-12T06:37:24.128Z,73.33
2022-11-12T06:38:20.777Z,73.42
2022-11-12T06:39:17.237Z,72.37
2022-11-12T06:40:13.750Z,72.07
2022-11-12T06:41:11.383Z,72.76
2022-11-12T06:42:07.827Z,72.53
2022-11-12T06:43:04.341Z,71.68
2022-11-12T06:44:00.787Z,71.96
2022-11-12T06:44:57.230Z,73.19
2022-11-12T06:45:53.806Z,73.14
2022-11-12T06:46:50.300Z,72.50
2022-11-12T06:47:47.012Z,72.34
2022-11-12T06:48:43.519Z,71.54
2022-11-12T06:49:39.960Z,70.88
2022-11-12T06:50:36.677Z,71.48
2022-11-12T06:51:33.268Z,71.48
2022-11-12T06:52:29.715Z,71.98
2022-11-12T06:53:26.176Z,72.37
2022-11-12T06:54:22.681Z,71.95
2022-11-12T06:55:19.983Z,71.78
2022-11-12T06:56:16.470Z,72.28
2022-11-12T06:57:13.137Z,72.80
2022-11-12T06:58:09.641Z,72.23
2022-11-12T06:59:06.102Z,72.50
2022-11-12T07:00:02.603Z,72.07
2022-11-12T07:01:08.515Z,72.32
2022-11-12T07:02:07.932Z,72.83
2022-11-12T07:03:08.303Z,73.09
2022-11-12T07:04:04.778Z,72.64
2022-11-12T07:05:01.283Z,72.01
2022-11-12T07:05:57.714Z,71.78
2022-11-12T07:06:54.206Z,72.29
2022-11-12T07:07:50.648Z,71.50
2022-11-12T07:08:47.607Z,71.17
2022-11-12T07:09:44.072Z,71.24
2022-11-12T07:10:40.559Z,71.71
2022-11-12T07:11:37.056Z,71.67
2022-11-12T07:12:33.617Z,71.90
2022-11-12T07:13:31.841Z,72.28
2022-11-12T07:14:28.333Z,73.24
2022-11-12T07:15:25.043Z,71.92
2022-11-12T07:16:22.545Z,72.52
2022-11-12T07:17:18.974Z,71.22
2022-11-12T07:18:15.415Z,72.83
2022-11-12T07:19:11.932Z,71.47
2022-11-12T07:20:08.822Z,71.88
2022-11-12T07:21:09.019Z,72.12
2022-11-12T07:22:05.480Z,72.25
2022-11-12T07:23:02.046Z,72.65
2022-11-12T07:23:58.611Z,71.24
2022-11-12T07:24:55.104Z,71.13
2022-11-12T07:25:58.768Z,70.30
2022-11-12T07:26:55.222Z,71.11
2022-11-12T07:27:52.950Z,70.70
2022-11-12T07:28:50.298Z,72.53
2022-11-12T07:29:48.407Z,72.72
2022-11-12T07:30:45.315Z,71.53
2022-11-12T07:31:41.879Z,71.93
2022-11-12T07:32:43.394Z,71.48
2022-11-12T07:33:43.198Z,71.21
2022-11-12T07:34:39.621Z,71.45
2022-11-12T07:35:36.042Z,71.74
2022-11-12T07:36:32.492Z,70.71
2022-11-12T07:37:29.027Z,71.24
2022-11-12T07:38:25.999Z,70.60
2022-11-12T07:39:22.713Z,71.31
2022-11-12T07:40:19.222Z,70.67
2022-11-12T07:41:15.682Z,71.04
2022-11-12T07:42:12.195Z,70.07
2022-11-12T07:43:08.656Z,69.04
2022-11-12T07:44:05.268Z,69.17
2022-11-12T07:45:01.854Z,69.38
2022-11-12T07:46:07.522Z,69.52
2022-11-12T07:47:06.704Z,69.88
2022-11-12T07:48:03.226Z,69.70
2022-11-12T07:48:59.836Z,68.78
2022-11-12T07:49:56.333Z,69.80
2022-11-12T07:50:52.793Z,68.85
2022-11-12T07:51:49.242Z,67.52
2022-11-12T07:52:45.695Z,67.62
2022-11-12T07:53:42.520Z,66.87
2022-11-12T07:54:38.964Z,67.06
2022-11-12T07:55:35.395Z,66.78
2022-11-12T07:56:31.888Z,66.75
2022-11-12T07:57:28.343Z,66.14
2022-11-12T07:58:25.645Z,65.44
2022-11-12T07:59:22.435Z,66.42
2022-11-12T08:00:19.046Z,65.38
2022-11-12T08:01:15.477Z,66.70
2022-11-12T08:02:11.987Z,65.89
2022-11-12T08:03:08.434Z,66.26
2022-11-12T08:04:06.113Z,66.31
2022-11-12T08:05:02.568Z,65.56
2022-11-12T08:05:59.805Z,65.36
2022-11-12T08:06:56.391Z,65.57
2022-11-12T08:07:55.190Z,64.93
2022-11-12T08:08:52.114Z,64.27
2022-11-12T08:09:48.702Z,63.78
2022-11-12T08:10:45.157Z,64.76
2022-11-12T08:11:42.267Z,63.33
2022-11-12T08:12:38.712Z,64.63
2022-11-12T08:13:35.158Z,64.27
2022-11-12T08:14:31.660Z,62.76
2022-11-12T08:15:28.165Z,63.32
2022-11-12T08:16:24.663Z,63.25
2022-11-12T08:17:21.115Z,62.37
2022-11-12T08:18:17.733Z,62.69
2022-11-12T08:19:14.193Z,62.46
2022-11-12T08:20:10.915Z,61.95
2022-11-12T08:21:09.941Z,61.78
2022-11-12T08:22:06.399Z,61.75
2022-11-12T08:23:03.154Z,62.99
2022-11-12T08:24:02.639Z,63.47
2022-11-12T08:24:59.079Z,61.20
2022-11-12T08:25:59.115Z,60.95
2022-11-12T08:26:55.546Z,61.71
2022-11-12T08:27:55.867Z,62.55
2022-11-12T08:28:52.292Z,63.31
2022-11-12T08:29:48.720Z,62.28
2022-11-12T08:30:45.672Z,61.20
2022-11-12T08:31:42.106Z,60.27
2022-11-12T08:32:38.520Z,60.75
2022-11-12T08:33:35.354Z,61.21
2022-11-12T08:34:31.820Z,61.46
2022-11-12T08:35:28.835Z,61.37
2022-11-12T08:36:25.427Z,60.69
2022-11-12T08:37:22.232Z,60.43
2022-11-12T08:38:18.904Z,61.24
2022-11-12T08:39:15.378Z,61.92
2022-11-12T08:40:12.245Z,61.31
2022-11-12T08:41:10.069Z,62.23
2022-11-12T08:42:06.538Z,61.88
2022-11-12T08:43:05.382Z,62.22
2022-11-12T08:44:07.157Z,62.16
2022-11-12T08:45:04.888Z,63.59
2022-11-12T08:46:02.271Z,63.05
2022-11-12T08:46:59.451Z,62.69
2022-11-12T08:47:59.742Z,63.42
2022-11-12T08:48:56.254Z,62.99
2022-11-12T08:49:52.719Z,62.94
2022-11-12T08:50:49.194Z,63.85
2022-11-12T08:51:45.671Z,62.45
2022-11-12T08:52:42.302Z,62.56
2022-11-12T08:53:38.829Z,63.07
2022-11-12T08:54:35.328Z,63.65
2022-11-12T08:55:33.348Z,63.33
2022-11-12T08:56:29.834Z,63.12
2022-11-12T08:57:26.312Z,63.05
2022-11-12T08:58:23.268Z,62.66
2022-11-12T08:59:19.812Z,62.48
2022-11-12T09:00:16.527Z,62.11
2022-11-12T09:01:13.092Z,62.10
2022-11-12T09:02:12.994Z,61.50
2022-11-12T09:03:13.698Z,60.66
2022-11-12T09:04:10.185Z,60.08
2022-11-12T09:05:06.848Z,58.94
2022-11-12T09:06:04.341Z,58.95
2022-11-12T09:07:00.809Z,58.94
2022-11-12T09:08:01.273Z,59.13
2022-11-12T09:08:57.771Z,58.86
2022-11-12T09:09:54.232Z,56.74
2022-11-12T09:10:51.217Z,58.47
2022-11-12T09:11:48.081Z,59.09
2022-11-12T09:12:44.678Z,58.35
2022-11-12T09:13:41.212Z,57.20
2022-11-12T09:14:37.767Z,56.12
2022-11-12T09:15:38.629Z,56.82
2022-11-12T09:16:35.387Z,56.06
2022-11-12T09:17:32.615Z,57.65
2022-11-12T09:18:29.415Z,59.05
2022-11-12T09:19:26.085Z,61.55
2022-11-12T09:20:23.013Z,60.72
2022-11-12T09:21:24.565Z,58.91
2022-11-12T09:22:21.039Z,58.41
2022-11-12T09:23:17.953Z,57.74
2022-11-12T09:24:14.631Z,55.98
2022-11-12T09:25:11.108Z,58.27
2022-11-12T09:26:07.611Z,57.86
2022-11-12T09:27:04.073Z,58.76
2022-11-12T09:28:07.566Z,59.36
2022-11-12T09:29:04.040Z,59.27
2022-11-12T09:30:00.488Z,59.61
2022-11-12T09:30:56.935Z,58.61
2022-11-12T09:31:54.066Z,58.16
2022-11-12T09:32:50.601Z,57.97
2022-11-12T09:33:47.046Z,59.38
2022-11-12T09:34:43.508Z,60.16
2022-11-12T09:35:39.939Z,59.48
2022-11-12T09:36:39.812Z,59.54
2022-11-12T09:37:40.016Z,60.21
2022-11-12T09:38:36.524Z,59.33
2022-11-12T09:39:33.044Z,59.66
2022-11-12T09:40:52.482Z,59.83
2022-11-12T09:41:48.931Z,60.44
2022-11-12T09:42:48.186Z,60.58
2022-11-12T09:43:57.188Z,60.52
2022-11-12T09:45:19.904Z,61.73
2022-11-12T09:46:27.584Z,60.70
2022-11-12T09:47:41.185Z,60.48
2022-11-12T09:48:41.615Z,60.91
2022-11-12T09:50:04.019Z,60.29
2022-11-12T09:51:04.104Z,61.95
2022-11-12T09:52:03.233Z,61.66
2022-11-12T09:53:07.773Z,61.40
2022-11-12T09:54:23.044Z,61.75
2022-11-12T09:55:22.552Z,62.85
2022-11-12T09:56:20.631Z,63.04
2022-11-12T09:57:17.108Z,62.53
2022-11-12T09:58:14.865Z,62.50
2022-11-12T09:59:12.687Z,62.37
2022-11-12T10:00:19.694Z,62.43
2022-11-12T10:01:18.815Z,62.75
2022-11-12T10:02:26.502Z,64.01
2022-11-12T10:03:22.988Z,64.27
2022-11-12T10:04:34.839Z,65.13
2022-11-12T10:05:34.655Z,63.63
2022-11-12T10:06:45.962Z,65.92
2022-11-12T10:07:42.656Z,65.14
2022-11-12T10:08:49.109Z,64.20
2022-11-12T10:09:48.396Z,63.84
2022-11-12T10:10:49.188Z,63.93
2022-11-12T10:12:07.328Z,64.07
2022-11-12T10:13:13.967Z,65.09
2022-11-12T10:14:28.464Z,64.45
2022-11-12T10:15:58.413Z,65.77
2022-11-12T10:16:54.832Z,64.29
2022-11-12T10:18:17.801Z,63.40
2022-11-12T10:19:20.185Z,64.02
2022-11-12T10:20:23.914Z,63.31
2022-11-12T10:21:22.973Z,62.84
2022-11-12T10:22:22.459Z,63.45
2022-11-12T10:23:21.031Z,63.04
2022-11-12T10:24:20.793Z,64.61
2022-11-12T10:25:19.703Z,64.44
2022-11-12T10:26:17.559Z,63.50
2022-11-12T10:27:27.439Z,66.27
2022-11-12T10:28:38.517Z,67.88
2022-11-12T10:29:42.499Z,66.68
2022-11-12T10:30:40.266Z,68.72
2022-11-12T10:31:37.086Z,67.85
2022-11-12T10:32:35.650Z,66.70
2022-11-12T10:33:32.180Z,67.45
2022-11-12T10:34:28.951Z,67.15
2022-11-12T10:35:25.448Z,67.74
2022-11-12T10:36:35.884Z,68.76
2022-11-12T10:37:41.785Z,67.74
2022-11-12T10:38:38.738Z,68.88
2022-11-12T10:39:40.443Z,67.67
2022-11-12T10:40:40.109Z,66.69
2022-11-12T10:41:36.744Z,66.69
2022-11-12T10:42:33.179Z,67.91
2022-11-12T10:43:29.641Z,68.46
2022-11-12T10:44:27.120Z,67.59
2022-11-12T10:45:23.898Z,67.67
2022-11-12T10:46:21.680Z,68.10
2022-11-12T10:47:18.203Z,67.75
2022-11-12T10:48:24.491Z,68.24
2022-11-12T10:49:24.667Z,67.79
2022-11-12T10:50:27.980Z,67.44
2022-11-12T10:51:32.463Z,67.04
2022-11-12T10:52:28.951Z,67.52
2022-11-12T10:53:31.005Z,66.13
2022-11-12T10:54:27.511Z,66.60
2022-11-12T10:55:44.250Z,66.41
2022-11-12T10:56:40.736Z,64.57
2022-11-12T10:57:37.219Z,64.59
2022-11-12T10:58:33.994Z,64.56
2022-11-12T10:59:30.455Z,65.21
2022-11-12T11:00:26.905Z,64.33
2022-11-12T11:01:23.451Z,65.04
2022-11-12T11:02:20.023Z,67.52
2022-11-12T11:03:19.644Z,66.53
2022-11-12T11:04:21.991Z,66.02
2022-11-12T11:05:35.388Z,66.03
2022-11-12T11:06:31.908Z,64.70
2022-11-12T11:07:28.483Z,63.89
2022-11-12T11:08:39.633Z,65.58
2022-11-12T11:09:36.384Z,66.53
2022-11-12T11:10:34.315Z,65.08
2022-11-12T11:11:31.195Z,65.45
2022-11-12T11:12:29.947Z,66.75
2022-11-12T11:13:28.645Z,65.73
2022-11-12T11:14:25.219Z,65.21
2022-11-12T11:15:23.287Z,65.69
2022-11-12T11:16:21.311Z,65.54
2022-11-12T11:17:18.822Z,66.44
2022-11-12T11:18:15.650Z,65.48
2022-11-12T11:19:12.184Z,65.73
2022-11-12T11:20:17.735Z,64.82
2022-11-12T11:21:20.343Z,65.70
2022-11-12T11:22:37.257Z,66.62
2022-11-12T11:23:33.758Z,68.31
2022-11-12T11:24:33.039Z,67.67
2022-11-12T11:25:29.876Z,67.18
2022-11-12T11:26:26.509Z,66.32
2022-11-12T11:27:48.519Z,66.99
2022-11-12T11:28:55.758Z,66.21
2022-11-12T11:30:12.480Z,64.80
2022-11-12T11:31:12.111Z,65.17
2022-11-12T11:32:19.815Z,65.33
2022-11-12T11:33:22.518Z,65.39
2022-11-12T11:34:24.993Z,65.73
2022-11-12T11:35:39.845Z,65.45
2022-11-12T11:36:48.093Z,64.15
2022-11-12T11:37:58.307Z,64.93
2022-11-12T11:38:58.493Z,65.86
2022-11-12T11:40:01.585Z,64.07
2022-11-12T11:41:16.285Z,63.33
2022-11-12T11:42:18.860Z,61.76
2022-11-12T11:43:27.658Z,61.90
2022-11-12T11:44:30.356Z,62.87
2022-11-12T11:45:46.304Z,63.59
2022-11-12T11:46:49.743Z,63.14
2022-11-12T11:48:02.590Z,63.81
2022-11-12T11:49:18.064Z,64.07
2022-11-12T11:50:20.668Z,63.63
2022-11-12T11:51:26.302Z,64.82
2022-11-12T11:52:22.783Z,65.20
2022-11-12T11:53:26.754Z,65.19
2022-11-12T11:54:34.521Z,64.24
2022-11-12T11:55:37.393Z,63.72
2022-11-12T11:56:36.642Z,65.06
2022-11-12T11:57:39.366Z,65.72
2022-11-12T11:58:54.721Z,64.98
2022-11-12T11:59:54.443Z,64.54
2022-11-12T12:01:00.108Z,63.13
2022-11-12T12:02:15.541Z,62.85
2022-11-12T12:03:17.478Z,63.41
2022-11-12T12:04:29.521Z,63.67
2022-11-12T12:05:26.138Z,62.68
2022-11-12T12:06:24.984Z,62.65
2022-11-12T12:07:21.719Z,61.88
2022-11-12T12:08:35.031Z,62.84
2022-11-12T12:09:43.715Z,62.86
2022-11-12T12:11:06.889Z,63.78
2022-11-12T12:12:24.460Z,62.78
2022-11-12T12:13:20.972Z,64.11
2022-11-12T12:14:17.379Z,63.08
2022-11-12T12:15:22.968Z,63.27
2022-11-12T12:16:19.461Z,64.03
2022-11-12T12:17:41.777Z,62.84
2022-11-12T12:18:38.520Z,63.33
2022-11-12T12:19:54.233Z,62.64
2022-11-12T12:20:56.750Z,63.39
2022-11-12T12:21:53.719Z,63.43
2022-11-12T12:22:57.284Z,63.81
2022-11-12T12:23:58.110Z,63.91
2022-11-12T12:25:01.299Z,62.71
2022-11-12T12:26:00.577Z,62.83
2022-11-12T12:27:03.777Z,63.04
2022-11-12T12:28:02.678Z,63.38
2022-11-12T12:28:59.131Z,63.17
2022-11-12T12:30:03.862Z,64.09
2022-11-12T12:31:04.794Z,64.19
2022-11-12T12:32:01.312Z,63.11
2022-11-12T12:33:03.980Z,64.39
2022-11-12T12:34:03.047Z,65.16
2022-11-12T12:35:06.375Z,65.41
2022-11-12T12:36:06.172Z,64.28
2022-11-12T12:37:11.265Z,64.01
2022-11-12T12:38:15.620Z,64.30
2022-11-12T12:39:17.660Z,64.38
2022-11-12T12:40:25.527Z,63.87
2022-11-12T12:41:32.967Z,64.98
2022-11-12T12:42:33.887Z,65.27